Portada
METAR-TAF:

METAR-TAF

Aeroports :

Yokota, Japó

latitud: 35-45N, longitud: 139-21E, altitud: 139 m

Observació

L'informe es va fer fa 20 minuts, a les 11:56 UTC
Vent 7 kt del Nord
Temperatura 6°C
Humitat 61%
Pressió 1029 hPa
Visibilitat: 16.1 km
Cel cobert a una alçada de 6000 ft

METAR: RJTY 251156Z AUTO 01007KT 10SM OVC060 06/M01 A3039 RMK AO2 SLP300 T00571012 10083 20057 50004 FZRANO $

Hora: 21:16 (12:16 UTC)

Pronòstic

L'informe es va fer fa 7 hores i 16 minuts, a les 05:00 UTC
Pronòstic vàlid del 25 a les 05 UTC al 26 a les 11 UTC
Vent 6 kt del Nord-Est
Visibilitat 10 km o més
Cel ennuvolat a una alçada de 4500 ft
Cel ennuvolat a una alçada de 10000 ft
Evolucionant progressivament
l' 25 a les 19 UTC al 25 a les 20 UTC
Vent 6 kt amb direcció variable
Visibilitat 10 km o més
Escasses núvols a una alçada de 4500 ft

TAF: RJTY 250500Z 2505/2611 04006KT 9999 BKN045 BKN100 QNH3034INS BECMG 2519/2520 VRB06KT 9999 FEW045 QNH3025INS TX09/2506Z TN00/2521Z

Observacions i pronòstics meteorològics de més de 4000 aeroports (METAR i TAF).

Les estacions disponibles són els punts grocs i vermells al mapa.

Posi el ratolí al punt desitjat per veure el nom de l'estació.

Feu clic per veure les observacions i els pronòstics meteorològics.

Per canviar el mapa: feu clic els botons verds amb una creu de color negre per apropar; al botó verd amb un guió per allunyar la imatge; o en les fletxes verdes per a mapes adjacents.


METAR-TAF: